createdAt,value
2019-05-06T00:02:07.331Z,7.53
2019-05-06T00:04:34.184Z,13.87
2019-05-06T00:07:00.777Z,7.83
2019-05-06T00:09:27.229Z,9.23
2019-05-06T00:11:54.564Z,10.50
2019-05-06T00:14:23.425Z,11.57
2019-05-06T00:16:49.472Z,16.53
2019-05-06T00:19:15.805Z,12.33
2019-05-06T00:21:44.214Z,14.57
2019-05-06T00:24:10.747Z,12.33
2019-05-06T00:26:41.957Z,14.17
2019-05-06T00:29:10.343Z,12.83
2019-05-06T00:31:37.289Z,13.13
2019-05-06T00:34:04.353Z,13.93
2019-05-06T00:36:31.190Z,18.27
2019-05-06T00:38:59.693Z,14.17
2019-05-06T00:41:28.212Z,15.00
2019-05-06T00:43:54.872Z,12.73
2019-05-06T00:46:21.582Z,14.10
2019-05-06T00:48:48.060Z,12.00
2019-05-06T00:51:14.564Z,18.47
2019-05-06T00:53:46.033Z,13.33
2019-05-06T00:56:14.014Z,15.77
2019-05-06T00:58:40.671Z,17.13
2019-05-06T01:01:07.317Z,16.23
2019-05-06T01:03:34.762Z,14.97
2019-05-06T01:06:03.726Z,15.80
2019-05-06T01:08:30.075Z,21.30
2019-05-06T01:10:56.688Z,20.53
2019-05-06T01:13:43.792Z,14.33
2019-05-06T01:16:12.346Z,16.40
2019-05-06T01:18:38.871Z,13.23
2019-05-06T01:21:11.109Z,16.23
2019-05-06T01:23:40.201Z,20.00
2019-05-06T01:26:06.977Z,16.43
2019-05-06T01:28:34.197Z,16.97
2019-05-06T01:31:00.845Z,19.60
2019-05-06T01:33:27.316Z,18.50
2019-05-06T01:35:54.306Z,15.10
2019-05-06T01:38:24.269Z,19.83
2019-05-06T01:41:07.920Z,18.50
2019-05-06T01:43:39.151Z,20.20
2019-05-06T01:46:05.491Z,22.70
2019-05-06T01:48:47.135Z,15.03
2019-05-06T01:51:19.415Z,14.90
2019-05-06T01:53:46.331Z,19.97
2019-05-06T01:56:14.542Z,21.63
2019-05-06T01:58:41.027Z,18.77
2019-05-06T02:01:07.816Z,17.03
2019-05-06T02:03:34.748Z,14.37
2019-05-06T02:06:01.370Z,19.10
2019-05-06T02:08:28.019Z,19.00
2019-05-06T02:10:54.686Z,17.27
2019-05-06T02:13:21.141Z,16.90
2019-05-06T02:15:47.785Z,18.80
2019-05-06T02:18:14.105Z,22.73
2019-05-06T02:20:44.428Z,18.03
2019-05-06T02:23:11.925Z,23.10
2019-05-06T02:25:39.983Z,14.87
2019-05-06T02:28:06.163Z,13.20
2019-05-06T02:30:39.786Z,18.53
2019-05-06T02:33:10.681Z,19.67
2019-05-06T02:35:41.597Z,20.37
2019-05-06T02:38:09.731Z,17.93
2019-05-06T02:40:35.959Z,17.77
2019-05-06T02:43:03.325Z,23.13
2019-05-06T02:45:29.692Z,15.37
2019-05-06T02:48:14.503Z,17.30
2019-05-06T02:50:42.730Z,11.23
2019-05-06T02:53:08.904Z,13.40
2019-05-06T02:55:36.212Z,17.27
2019-05-06T02:58:02.872Z,11.33
2019-05-06T03:00:29.143Z,14.93
2019-05-06T03:02:55.305Z,15.23
2019-05-06T03:05:23.693Z,16.17
2019-05-06T03:07:49.624Z,20.37
2019-05-06T03:10:17.361Z,14.77
2019-05-06T03:12:43.566Z,16.50
2019-05-06T03:15:16.287Z,16.20
2019-05-06T03:17:39.001Z,16.60
2019-05-06T03:20:08.361Z,15.50
2019-05-06T03:22:37.127Z,14.63
2019-05-06T03:25:08.597Z,14.83
2019-05-06T03:27:34.822Z,15.47
2019-05-06T03:30:04.152Z,15.60
2019-05-06T03:32:32.121Z,15.30
2019-05-06T03:35:19.079Z,20.33
2019-05-06T03:37:25.260Z,16.57
2019-05-06T03:39:52.901Z,18.10
2019-05-06T03:42:19.330Z,17.67
2019-05-06T03:44:47.439Z,14.60
2019-05-06T03:47:34.525Z,16.93
2019-05-06T03:50:00.292Z,18.47
2019-05-06T03:52:28.005Z,18.63
2019-05-06T03:54:54.462Z,13.43
2019-05-06T03:57:23.179Z,17.27
2019-05-06T03:59:52.937Z,15.53
2019-05-06T04:02:19.417Z,20.17
2019-05-06T04:04:45.519Z,21.17
2019-05-06T04:07:13.945Z,17.10
2019-05-06T04:09:40.050Z,18.57
2019-05-06T04:12:06.358Z,19.90
2019-05-06T04:14:33.820Z,15.97
2019-05-06T04:17:05.247Z,20.00
2019-05-06T04:19:39.380Z,17.20
2019-05-06T04:22:07.635Z,22.37
2019-05-06T04:24:38.489Z,21.87
2019-05-06T04:27:43.764Z,22.13
2019-05-06T04:30:13.260Z,14.13
2019-05-06T04:32:38.601Z,15.93
2019-05-06T04:35:04.950Z,19.47
2019-05-06T04:37:33.940Z,22.23
2019-05-06T04:39:59.734Z,23.83
2019-05-06T04:42:27.017Z,18.53
2019-05-06T04:44:53.576Z,15.77
2019-05-06T04:47:19.890Z,20.33
2019-05-06T04:49:46.243Z,23.77
2019-05-06T04:52:13.848Z,23.33
2019-05-06T04:54:40.449Z,19.07
2019-05-06T04:57:06.785Z,16.27
2019-05-06T04:59:33.611Z,16.40
2019-05-06T05:02:02.490Z,21.47
2019-05-06T05:04:32.470Z,19.37
2019-05-06T05:06:56.357Z,21.10
2019-05-06T05:09:23.174Z,23.33
2019-05-06T05:11:53.255Z,18.67
2019-05-06T05:14:25.643Z,17.37
2019-05-06T05:16:52.833Z,21.40
2019-05-06T05:19:19.490Z,27.77
2019-05-06T05:21:45.719Z,16.73
2019-05-06T05:24:12.326Z,16.23
2019-05-06T05:26:39.764Z,18.33
2019-05-06T05:29:06.059Z,20.87
2019-05-06T05:31:33.126Z,17.57
2019-05-06T05:34:01.921Z,22.33
2019-05-06T05:36:27.721Z,19.60
2019-05-06T05:38:54.092Z,18.77
2019-05-06T05:41:20.771Z,15.80
2019-05-06T05:43:52.571Z,22.13
2019-05-06T05:46:18.572Z,21.07
2019-05-06T05:48:51.977Z,19.90
2019-05-06T05:51:18.386Z,17.43
2019-05-06T05:53:44.619Z,19.30
2019-05-06T05:56:14.100Z,20.30
2019-05-06T05:58:42.436Z,19.13
2019-05-06T06:01:08.828Z,22.13
2019-05-06T06:03:35.163Z,22.40
2019-05-06T06:06:03.215Z,18.30
2019-05-06T06:08:29.596Z,15.47
2019-05-06T06:10:57.937Z,19.93
2019-05-06T06:13:24.376Z,17.13
2019-05-06T06:15:52.682Z,17.47
2019-05-06T06:18:22.427Z,18.47
2019-05-06T06:20:56.634Z,17.17
2019-05-06T06:23:36.736Z,19.60
2019-05-06T06:26:03.896Z,16.77
2019-05-06T06:28:30.452Z,18.47
2019-05-06T06:31:07.503Z,22.13
2019-05-06T06:33:33.845Z,16.30
2019-05-06T06:36:07.755Z,21.77
2019-05-06T06:38:52.566Z,15.83
2019-05-06T06:41:19.008Z,18.23
2019-05-06T06:43:47.109Z,22.33
2019-05-06T06:46:13.242Z,18.43
2019-05-06T06:48:39.546Z,19.20
2019-05-06T06:51:05.965Z,20.33
2019-05-06T06:53:32.699Z,18.00
2019-05-06T06:56:19.090Z,13.53
2019-05-06T06:58:50.125Z,15.70
2019-05-06T07:01:23.385Z,16.83
2019-05-06T07:03:52.828Z,23.53
2019-05-06T07:06:22.366Z,16.47
2019-05-06T07:08:48.618Z,17.60
2019-05-06T07:11:14.786Z,19.63
2019-05-06T07:13:44.822Z,17.10
2019-05-06T07:16:12.346Z,21.47
2019-05-06T07:18:38.671Z,17.70
2019-05-06T07:21:07.034Z,17.57
2019-05-06T07:23:35.215Z,18.27
2019-05-06T07:26:03.059Z,19.43
2019-05-06T07:28:29.592Z,16.40
2019-05-06T07:30:56.018Z,18.87
2019-05-06T07:33:22.893Z,20.37
2019-05-06T07:35:52.910Z,15.27
2019-05-06T07:38:19.438Z,23.73
2019-05-06T07:40:47.580Z,18.57
2019-05-06T07:43:33.903Z,18.63
2019-05-06T07:46:02.554Z,17.07
2019-05-06T07:48:28.766Z,17.30
2019-05-06T07:50:54.997Z,13.93
2019-05-06T07:53:22.372Z,16.97
2019-05-06T07:55:48.657Z,18.40
2019-05-06T07:58:14.780Z,19.37
2019-05-06T08:00:42.289Z,17.92
2019-05-06T08:03:08.545Z,14.67
2019-05-06T08:05:34.750Z,25.33
2019-05-06T08:08:03.586Z,17.60
2019-05-06T08:10:29.200Z,22.07
2019-05-06T08:12:55.527Z,20.13
2019-05-06T08:15:22.672Z,19.83
2019-05-06T08:17:49.579Z,20.62
2019-05-06T08:20:15.909Z,19.53
2019-05-06T08:22:44.075Z,18.60
2019-05-06T08:25:12.191Z,20.97
2019-05-06T08:27:38.429Z,22.00
2019-05-06T08:30:06.779Z,20.40
2019-05-06T08:32:33.201Z,20.77
2019-05-06T08:34:59.376Z,20.20
2019-05-06T08:37:36.246Z,20.30
2019-05-06T08:40:04.185Z,22.80
2019-05-06T08:42:30.307Z,18.90
2019-05-06T08:44:56.587Z,18.87
2019-05-06T08:47:22.713Z,27.33
2019-05-06T08:50:05.655Z,23.37
2019-05-06T08:52:52.177Z,23.70
2019-05-06T08:55:38.236Z,22.30
2019-05-06T08:58:05.049Z,23.73
2019-05-06T09:00:32.415Z,25.10
2019-05-06T09:02:58.618Z,24.50
2019-05-06T09:05:24.747Z,17.17
2019-05-06T09:07:52.383Z,14.07
2019-05-06T09:10:18.860Z,15.90
2019-05-06T09:12:45.057Z,13.10
2019-05-06T09:15:12.547Z,14.37
2019-05-06T09:17:38.829Z,13.53
2019-05-06T09:20:05.409Z,11.93
2019-05-06T09:22:32.609Z,14.80
2019-05-06T09:24:58.861Z,12.20
2019-05-06T09:27:32.808Z,16.93
2019-05-06T09:30:03.034Z,11.63
2019-05-06T09:32:35.661Z,11.37
2019-05-06T09:34:59.062Z,12.43
2019-05-06T09:37:25.346Z,13.97
2019-05-06T09:39:53.481Z,15.10
2019-05-06T09:42:19.690Z,13.40
2019-05-06T09:44:50.444Z,13.07
2019-05-06T09:47:23.777Z,12.37
2019-05-06T09:49:50.012Z,13.13
2019-05-06T09:52:16.218Z,16.87
2019-05-06T09:55:03.236Z,12.27
2019-05-06T09:57:46.649Z,13.93
2019-05-06T10:00:15.107Z,10.67
2019-05-06T10:02:43.528Z,10.33
2019-05-06T10:05:12.017Z,10.50
2019-05-06T10:07:38.205Z,14.73
2019-05-06T10:10:04.629Z,10.73
2019-05-06T10:12:32.853Z,8.30
2019-05-06T10:14:59.165Z,15.80
2019-05-06T10:17:25.483Z,9.17
2019-05-06T10:19:51.819Z,13.37
2019-05-06T10:22:18.191Z,11.37
2019-05-06T10:24:44.382Z,10.43
2019-05-06T10:27:12.566Z,8.67
2019-05-06T10:29:43.023Z,11.20
2019-05-06T10:32:22.574Z,12.20
2019-05-06T10:34:48.751Z,16.53
2019-05-06T10:37:20.740Z,11.93
2019-05-06T10:39:53.491Z,15.10
2019-05-06T10:42:23.485Z,14.57
2019-05-06T10:45:15.969Z,20.07
2019-05-06T10:47:42.421Z,18.70
2019-05-06T10:50:12.561Z,18.07
2019-05-06T10:52:51.709Z,16.77
2019-05-06T10:55:17.614Z,17.37
2019-05-06T10:57:45.622Z,17.77
2019-05-06T11:00:12.402Z,15.17
2019-05-06T11:02:43.529Z,18.73
2019-05-06T11:05:09.945Z,16.33
2019-05-06T11:07:36.331Z,14.97
2019-05-06T11:10:04.569Z,19.80
2019-05-06T11:12:32.564Z,17.77
2019-05-06T11:14:58.875Z,16.20
2019-05-06T11:17:25.095Z,19.47
2019-05-06T11:19:53.156Z,20.63
2019-05-06T11:22:21.308Z,24.30
2019-05-06T11:24:47.325Z,19.13
2019-05-06T11:27:27.477Z,21.10
2019-05-06T11:29:43.659Z,18.13
2019-05-06T11:32:17.793Z,18.47
2019-05-06T11:35:03.757Z,20.37
2019-05-06T11:37:51.973Z,18.53
2019-05-06T11:40:17.661Z,21.43
2019-05-06T11:42:44.075Z,23.50
2019-05-06T11:45:12.177Z,20.83
2019-05-06T11:47:38.494Z,24.83
2019-05-06T11:50:06.222Z,22.83
2019-05-06T11:52:34.480Z,21.13
2019-05-06T11:55:02.217Z,22.37
2019-05-06T11:57:28.525Z,16.80
2019-05-06T11:59:54.754Z,22.13
2019-05-06T12:02:22.911Z,21.30
2019-05-06T12:04:49.129Z,16.33
2019-05-06T12:07:16.174Z,24.93
2019-05-06T12:09:42.533Z,17.47
2019-05-06T12:12:08.738Z,20.07
2019-05-06T12:14:34.929Z,24.13
2019-05-06T12:17:02.238Z,17.20
2019-05-06T12:19:28.588Z,18.73
2019-05-06T12:21:54.808Z,15.87
2019-05-06T12:24:22.872Z,14.87
2019-05-06T12:26:49.185Z,15.73
2019-05-06T12:29:15.370Z,14.73
2019-05-06T12:31:42.159Z,16.60
2019-05-06T12:34:11.492Z,15.87
2019-05-06T12:36:36.679Z,19.23
2019-05-06T12:39:18.657Z,15.63
2019-05-06T12:42:04.120Z,25.70
2019-05-06T12:44:32.372Z,19.20
2019-05-06T12:47:03.509Z,23.83
2019-05-06T12:49:32.378Z,18.23
2019-05-06T12:51:57.807Z,17.60
2019-05-06T12:54:24.117Z,23.30
2019-05-06T12:56:51.884Z,20.17
2019-05-06T12:59:18.098Z,18.63
2019-05-06T13:01:45.393Z,22.03
2019-05-06T13:04:13.606Z,28.43
2019-05-06T13:06:45.833Z,32.13
2019-05-06T13:09:08.132Z,17.60
2019-05-06T13:11:34.282Z,14.50
2019-05-06T13:14:03.814Z,20.57
2019-05-06T13:16:29.040Z,21.17
2019-05-06T13:18:55.188Z,18.47
2019-05-06T13:21:22.345Z,19.97
2019-05-06T13:24:04.555Z,21.57
2019-05-06T13:26:32.571Z,25.77
2019-05-06T13:29:04.311Z,18.90
2019-05-06T13:31:28.659Z,20.90
2019-05-06T13:33:56.986Z,17.10
2019-05-06T13:36:23.417Z,15.03
2019-05-06T13:38:49.638Z,14.83
2019-05-06T13:44:47.410Z,10.20
2019-05-06T13:47:15.434Z,11.63
2019-05-06T13:49:46.305Z,12.50
2019-05-06T13:52:12.878Z,9.63
2019-05-06T13:54:39.106Z,9.47
2019-05-06T13:57:05.350Z,6.20
2019-05-06T13:59:34.751Z,6.83
2019-05-06T14:02:10.491Z,8.47
2019-05-06T14:04:36.707Z,9.78
2019-05-06T14:07:06.961Z,5.73
2019-05-06T14:09:35.266Z,9.57
2019-05-06T14:11:59.150Z,10.03
2019-05-06T14:14:25.346Z,9.03
2019-05-06T14:16:53.415Z,6.33
2019-05-06T14:19:19.592Z,10.37
2019-05-06T14:21:45.797Z,5.90
2019-05-06T14:24:13.241Z,6.57
2019-05-06T14:26:57.575Z,5.00
2019-05-06T14:29:29.351Z,8.03
2019-05-06T14:31:57.289Z,7.80
2019-05-06T14:34:23.425Z,6.53
2019-05-06T14:36:49.678Z,11.63
2019-05-06T14:39:23.645Z,6.80
2019-05-06T14:41:53.580Z,6.97
2019-05-06T14:44:19.924Z,9.63
2019-05-06T14:47:04.634Z,6.43
2019-05-06T14:49:32.533Z,6.47
2019-05-06T14:51:58.912Z,5.77
2019-05-06T14:54:25.379Z,9.60
2019-05-06T14:56:53.547Z,6.03
2019-05-06T14:59:19.788Z,7.70
2019-05-06T15:01:46.046Z,5.40
2019-05-06T15:04:12.593Z,5.53
2019-05-06T15:06:38.918Z,14.37
2019-05-06T15:09:06.568Z,5.33
2019-05-06T15:11:32.897Z,6.40
2019-05-06T15:13:59.138Z,3.53
2019-05-06T15:16:25.295Z,6.47
2019-05-06T15:18:53.011Z,4.00
2019-05-06T15:21:33.986Z,4.60
2019-05-06T15:23:47.285Z,8.33
2019-05-06T15:26:13.465Z,2.70
2019-05-06T15:28:42.341Z,4.03
2019-05-06T15:31:15.443Z,3.23
2019-05-06T15:33:52.973Z,3.47
2019-05-06T15:36:23.727Z,5.10
2019-05-06T15:38:49.936Z,3.80
2019-05-06T15:41:16.174Z,3.97
2019-05-06T15:43:42.508Z,5.00
2019-05-06T15:46:08.836Z,4.40
2019-05-06T15:48:36.436Z,4.90
2019-05-06T15:51:02.891Z,4.57
2019-05-06T15:53:29.223Z,4.12
2019-05-06T15:55:55.587Z,4.90
2019-05-06T15:58:22.901Z,4.47
2019-05-06T16:00:49.171Z,3.37
2019-05-06T16:03:15.418Z,4.80
2019-05-06T16:05:43.652Z,3.90
2019-05-06T16:08:10.878Z,3.87
2019-05-06T16:10:51.244Z,3.27
2019-05-06T16:13:05.208Z,5.90
2019-05-06T16:15:33.577Z,3.23
2019-05-06T16:17:59.537Z,7.33
2019-05-06T16:20:25.779Z,3.73
2019-05-06T16:22:53.956Z,2.67
2019-05-06T16:25:21.083Z,3.47
2019-05-06T16:27:52.188Z,4.53
2019-05-06T16:30:17.835Z,6.53
2019-05-06T16:32:44.195Z,4.63
2019-05-06T16:35:11.934Z,4.97
2019-05-06T16:37:39.197Z,4.03
2019-05-06T16:40:06.583Z,3.03
2019-05-06T16:42:32.852Z,6.07
2019-05-06T16:44:59.051Z,4.43
2019-05-06T16:47:37.878Z,4.67
2019-05-06T16:50:09.341Z,5.47
2019-05-06T16:52:35.584Z,5.33
2019-05-06T16:55:03.953Z,4.87
2019-05-06T16:57:30.284Z,6.77
2019-05-06T16:59:56.538Z,4.80
2019-05-06T17:02:26.618Z,5.47
2019-05-06T17:05:12.490Z,4.77
2019-05-06T17:07:39.377Z,6.43
2019-05-06T17:10:05.788Z,4.83
2019-05-06T17:12:32.338Z,4.13
2019-05-06T17:14:58.667Z,8.43
2019-05-06T17:17:38.897Z,8.33
2019-05-06T17:19:52.987Z,3.33
2019-05-06T17:22:19.173Z,7.17
2019-05-06T17:24:48.321Z,4.23
2019-05-06T17:27:13.280Z,6.83
2019-05-06T17:29:57.516Z,5.83
2019-05-06T17:32:42.047Z,5.50
2019-05-06T17:35:08.558Z,7.33
2019-05-06T17:37:45.615Z,4.10
2019-05-06T17:40:14.520Z,4.70
2019-05-06T17:42:42.310Z,5.93
2019-05-06T17:45:27.369Z,7.13
2019-05-06T17:47:55.487Z,7.00
2019-05-06T17:50:22.545Z,6.80
2019-05-06T17:52:48.848Z,6.57
2019-05-06T17:55:14.958Z,5.53
2019-05-06T17:57:42.195Z,5.13
2019-05-06T18:00:08.958Z,6.67
2019-05-06T18:02:38.572Z,6.03
2019-05-06T18:05:04.918Z,5.73
2019-05-06T18:07:32.649Z,6.13
2019-05-06T18:09:58.939Z,6.10
2019-05-06T18:12:25.281Z,4.77
2019-05-06T18:14:53.355Z,4.77
2019-05-06T18:17:21.882Z,4.47
2019-05-06T18:19:47.614Z,7.07
2019-05-06T18:22:13.838Z,8.07
2019-05-06T18:24:39.960Z,10.07
2019-05-06T18:27:06.084Z,6.90
2019-05-06T18:29:33.484Z,3.20
2019-05-06T18:31:59.944Z,7.80
2019-05-06T18:34:26.167Z,8.27
2019-05-06T18:36:52.603Z,5.30
2019-05-06T18:39:18.929Z,5.73
2019-05-06T18:41:45.173Z,6.33
2019-05-06T18:44:12.023Z,5.77
2019-05-06T18:46:38.341Z,6.73
2019-05-06T18:49:04.456Z,6.83
2019-05-06T18:51:30.771Z,9.30
2019-05-06T18:53:57.010Z,4.97
2019-05-06T18:56:23.292Z,6.27
2019-05-06T18:58:49.574Z,7.17
2019-05-06T19:01:15.800Z,6.97
2019-05-06T19:03:43.867Z,5.60
2019-05-06T19:06:11.468Z,6.83
2019-05-06T19:08:42.899Z,4.83
2019-05-06T19:11:11.895Z,4.33
2019-05-06T19:13:38.231Z,5.77
2019-05-06T19:16:04.443Z,7.73
2019-05-06T19:18:31.101Z,5.27
2019-05-06T19:20:57.365Z,5.40
2019-05-06T19:23:23.784Z,4.47
2019-05-06T19:25:51.901Z,5.63
2019-05-06T19:28:18.060Z,5.30
2019-05-06T19:30:44.206Z,4.77
2019-05-06T19:33:12.335Z,6.40
2019-05-06T19:35:38.517Z,6.47
2019-05-06T19:38:05.236Z,7.23
2019-05-06T19:40:32.270Z,5.90
2019-05-06T19:42:58.684Z,6.87
2019-05-06T19:45:24.910Z,5.77
2019-05-06T19:47:52.261Z,7.33
2019-05-06T19:50:21.143Z,6.87
2019-05-06T19:52:46.594Z,6.07
2019-05-06T19:55:12.841Z,7.10
2019-05-06T19:57:39.079Z,4.40
2019-05-06T20:00:05.688Z,5.40
2019-05-06T20:02:32.099Z,5.83
2019-05-06T20:05:15.255Z,5.83
2019-05-06T20:07:43.374Z,6.30
2019-05-06T20:10:14.487Z,7.47
2019-05-06T20:12:43.544Z,7.20
2019-05-06T20:15:29.772Z,5.40
2019-05-06T20:17:55.937Z,8.47
2019-05-06T20:20:32.664Z,8.30
2019-05-06T20:22:58.012Z,7.73
2019-05-06T20:25:24.353Z,8.90
2019-05-06T20:27:52.600Z,6.83
2019-05-06T20:30:18.925Z,5.00
2019-05-06T20:32:45.160Z,5.00
2019-05-06T20:35:13.012Z,6.43
2019-05-06T20:37:39.361Z,7.77
2019-05-06T20:40:05.692Z,6.97
2019-05-06T20:42:32.766Z,7.67
2019-05-06T20:44:59.066Z,4.33
2019-05-06T20:47:25.270Z,6.03
2019-05-06T20:49:52.643Z,6.20
2019-05-06T20:52:18.955Z,5.40
2019-05-06T20:54:45.164Z,5.80
2019-05-06T20:57:12.307Z,5.03
2019-05-06T20:59:38.690Z,6.77
2019-05-06T21:02:05.019Z,9.30
2019-05-06T21:04:32.428Z,8.63
2019-05-06T21:06:58.936Z,6.20
2019-05-06T21:09:25.038Z,6.97
2019-05-06T21:11:52.809Z,8.30
2019-05-06T21:14:19.122Z,6.50
2019-05-06T21:16:47.957Z,6.17
2019-05-06T21:19:13.294Z,5.60
2019-05-06T21:21:43.172Z,5.55
2019-05-06T21:24:09.650Z,6.50
2019-05-06T21:26:35.931Z,4.83
2019-05-06T21:29:03.250Z,5.80
2019-05-06T21:31:29.600Z,7.90
2019-05-06T21:33:55.733Z,7.57
2019-05-06T21:36:23.009Z,11.63
2019-05-06T21:38:49.322Z,11.63
2019-05-06T21:41:17.748Z,11.30
2019-05-06T21:43:49.531Z,9.03
2019-05-06T21:46:12.991Z,12.47
2019-05-06T21:48:39.332Z,10.43
2019-05-06T21:51:05.535Z,12.43
2019-05-06T21:53:32.630Z,8.77
2019-05-06T21:55:58.886Z,9.20
2019-05-06T21:58:25.043Z,8.53
2019-05-06T22:01:02.151Z,10.03
2019-05-06T22:03:28.139Z,10.80
2019-05-06T22:05:54.741Z,12.07
2019-05-06T22:08:21.562Z,11.43
2019-05-06T22:10:49.420Z,10.07
2019-05-06T22:13:15.534Z,9.73
2019-05-06T22:15:42.247Z,11.77
2019-05-06T22:18:08.584Z,11.37
2019-05-06T22:20:36.585Z,13.30
2019-05-06T22:23:02.719Z,13.17
2019-05-06T22:25:28.881Z,11.27
2019-05-06T22:27:55.094Z,13.57
2019-05-06T22:30:23.712Z,10.27
2019-05-06T22:32:49.265Z,11.83
2019-05-06T22:35:15.884Z,17.53
2019-05-06T22:37:42.204Z,12.00
2019-05-06T22:40:12.077Z,16.63
2019-05-06T22:42:38.592Z,13.93
2019-05-06T22:45:05.712Z,14.87
2019-05-06T22:47:32.524Z,17.80
2019-05-06T22:49:58.792Z,16.00
2019-05-06T22:52:25.026Z,16.33
2019-05-06T22:54:52.756Z,18.17
2019-05-06T22:57:18.989Z,20.13
2019-05-06T22:59:45.183Z,18.37
2019-05-06T23:02:22.612Z,21.00
2019-05-06T23:04:53.740Z,17.10
2019-05-06T23:07:22.422Z,20.87
2019-05-06T23:09:48.020Z,21.83
2019-05-06T23:12:14.240Z,16.57
2019-05-06T23:14:41.988Z,16.10
2019-05-06T23:17:08.389Z,20.77
2019-05-06T23:19:34.633Z,19.90
2019-05-06T23:22:04.046Z,23.10
2019-05-06T23:24:28.797Z,19.77
2019-05-06T23:26:55.033Z,19.13
2019-05-06T23:29:22.430Z,20.70
2019-05-06T23:31:48.797Z,20.93
2019-05-06T23:34:15.012Z,21.43
2019-05-06T23:37:02.418Z,17.10
2019-05-06T23:40:13.072Z,19.73
2019-05-06T23:43:16.275Z,14.27
2019-05-06T23:46:19.245Z,19.70
2019-05-06T23:49:22.553Z,17.17
2019-05-06T23:52:25.840Z,19.07
2019-05-06T23:55:29.122Z,15.40
2019-05-06T23:57:55.021Z,17.00
